Aviation Digital Data Service (ADDS)

Output produced by METARs form (0945 UTC 25 February 2018)
found at http://aviationweather.gov/adds/metars/
 
KACY 250554Z 2506/2606 08009KT 6SM -RA BR OVC025 
     TEMPO 2506/2508 3SM RA BR OVC015 
     FM250800 08010KT 2SM RA BR OVC012 
     FM251200 10008KT 2SM -RA BR OVC005 
     FM251500 19005KT 6SM -RA BR OVC010 
     FM251800 24008KT P6SM OVC015 
     PROB30 2518/2523 3SM -RA BR 
     FM260300 29005KT P6SM OVC035